»·PEaware :: N65716 KSBA-KPSP

N65716 :: KSBA-KPSP

FLIGHT INFORMATION

Flight Status: Arrived
Operator: Privately registered:
United States
More flights under this callsign
Pilot: Jon W. (11333)
Aircraft: CESSNA 172 SKYHAWK
(C172)
More flights by this aircraft type
Origin: KSBA Santa Barbara Mun
United States
Destination: KPSP Palm Springs Intl
United States
More flights between these airports :: More routes between these airports
Route: +
File this flight plan on PilotEdge
Remarks:
Altitude:
(Current/Filed)
7,500ft
Speed:
(Current/Filed)
0kts
Departed: 22-Jun-16 05:49 PM
Arrived: 22-Jun-16 07:34 PM
Distance/Time
Traveled:
170nm/1:44
Distance/Time
To Go:
Arrived

Flight Plot

Page will automatically refresh every two minutes.


Map Options




Map Legend


Flown Route
Filed Route
Departure Airport
Arrival Airport
Navaid (VOR, NDB)
Fix

Horizontal Profiles

Position Reports

Time Latitude Longitude Heading Altitude Ground
Speed
22-Jun-16 17:32 34.422407 -119.835617 340 16ft 0kts
22-Jun-16 17:33 34.422407 -119.835617 340 16ft 0kts
22-Jun-16 17:34 34.422407 -119.835617 340 16ft 0kts
22-Jun-16 17:35 34.422407 -119.835617 340 16ft 0kts
22-Jun-16 17:36 34.422407 -119.835617 340 16ft 0kts
22-Jun-16 17:37 34.422407 -119.835617 340 16ft 0kts
22-Jun-16 17:38 34.422408 -119.836801 289 16ft 5kts
22-Jun-16 17:39 34.424580 -119.837804 343 16ft 10kts
22-Jun-16 17:40 34.426474 -119.837222 89 16ft 11kts
22-Jun-16 17:41 34.426845 -119.834641 348 16ft 0kts
22-Jun-16 17:42 34.426845 -119.834641 348 16ft 0kts
22-Jun-16 17:43 34.426845 -119.834641 348 16ft 0kts
22-Jun-16 17:44 34.427581 -119.834928 296 16ft 10kts
22-Jun-16 17:45 34.427951 -119.855558 270 723ft 74kts
22-Jun-16 17:46 34.425765 -119.879833 257 1778ft 71kts
22-Jun-16 17:47 34.420867 -119.903114 262 2700ft 77kts
22-Jun-16 17:48 34.421400 -119.929615 282 3586ft 77kts
22-Jun-16 17:49 34.433587 -119.949602 329 4466ft 79kts
22-Jun-16 17:50 34.454710 -119.950394 13 5347ft 79kts
22-Jun-16 17:51 34.474536 -119.937279 23 6109ft 82kts
22-Jun-16 17:52 34.493136 -119.925281 13 6844ft 76kts
22-Jun-16 17:53 34.513021 -119.915395 9 7540ft 73kts
22-Jun-16 17:54 34.532110 -119.901936 32 8147ft 85kts
22-Jun-16 17:55 34.548449 -119.880438 37 8753ft 88kts
22-Jun-16 17:56 34.562885 -119.850947 57 9143ft 110kts
22-Jun-16 17:58 34.571282 -119.813274 82 9437ft 127kts
22-Jun-16 18:03 34.553485 -119.742517 84 9610ft 103kts
22-Jun-16 18:06 34.548007 -119.691398 97 9083ft 101kts
22-Jun-16 18:07 34.544816 -119.655804 95 9397ft 114kts
22-Jun-16 18:08 34.541832 -119.615054 92 9363ft 125kts
22-Jun-16 18:09 34.540000 -119.573266 93 9355ft 126kts
22-Jun-16 18:10 34.535836 -119.530660 101 9359ft 126kts
22-Jun-16 18:11 34.524580 -119.490518 113 9364ft 125kts
22-Jun-16 18:12 34.511697 -119.455352 117 9366ft 125kts
22-Jun-16 18:13 34.494164 -119.418699 120 9359ft 124kts
22-Jun-16 18:14 34.475347 -119.383894 124 9370ft 122kts
22-Jun-16 18:14 34.462960 -119.352851 103 9375ft 123kts
22-Jun-16 18:16 34.463413 -119.304564 87 9391ft 122kts
22-Jun-16 18:16 34.464884 -119.270087 85 9409ft 122kts
22-Jun-16 18:18 34.466982 -119.221715 87 9431ft 123kts
22-Jun-16 18:18 34.467740 -119.187112 88 9447ft 123kts
22-Jun-16 18:19 34.467679 -119.145717 93 9463ft 123kts
22-Jun-16 18:20 34.464134 -119.104406 88 9470ft 123kts
22-Jun-16 18:21 34.465679 -119.062867 86 9486ft 123kts
22-Jun-16 18:22 34.466924 -119.021376 88 9500ft 123kts
22-Jun-16 18:23 34.467882 -118.979650 88 9477ft 124kts
22-Jun-16 18:24 34.468476 -118.937799 89 9464ft 124kts
22-Jun-16 18:25 34.468685 -118.902908 84 9422ft 133kts
22-Jun-16 18:26 34.469352 -118.858341 82 9503ft 133kts
22-Jun-16 18:27 34.472332 -118.813741 79 9567ft 132kts
22-Jun-16 18:28 34.473946 -118.768432 78 9542ft 135kts
22-Jun-16 18:29 34.479005 -118.728389 77 9514ft 136kts
22-Jun-16 18:30 34.484376 -118.682523 78 9445ft 138kts
22-Jun-16 18:31 34.490796 -118.635991 79 9334ft 139kts
22-Jun-16 18:32 34.499336 -118.590072 67 9274ft 132kts
22-Jun-16 18:33 34.510578 -118.550871 65 9268ft 120kts
22-Jun-16 18:34 34.515555 -118.510841 75 9343ft 115kts
22-Jun-16 18:35 34.520785 -118.469291 76 9403ft 129kts
22-Jun-16 18:36 34.527784 -118.424751 75 9503ft 134kts
22-Jun-16 18:37 34.529785 -118.378565 86 9599ft 138kts
22-Jun-16 18:38 34.525164 -118.331646 99 9603ft 144kts
22-Jun-16 18:39 34.520645 -118.283170 90 9534ft 145kts
22-Jun-16 18:40 34.519283 -118.233750 85 9370ft 146kts
22-Jun-16 18:41 34.518616 -118.184732 86 9324ft 141kts
22-Jun-16 18:42 34.518744 -118.135696 88 9162ft 145kts
22-Jun-16 18:43 34.515007 -118.088654 93 9287ft 138kts
22-Jun-16 18:44 34.511587 -118.041872 89 9340ft 138kts
22-Jun-16 18:45 34.507164 -117.995231 94 9393ft 139kts
22-Jun-16 18:46 34.501337 -117.948679 93 9446ft 139kts
22-Jun-16 18:47 34.496761 -117.901997 90 9492ft 139kts
22-Jun-16 18:48 34.490204 -117.856092 101 9484ft 141kts
22-Jun-16 18:49 34.481317 -117.809858 99 9488ft 140kts
22-Jun-16 18:50 34.472816 -117.763619 99 9448ft 140kts
22-Jun-16 18:51 34.464047 -117.717573 100 9424ft 138kts
22-Jun-16 18:52 34.454843 -117.671757 99 9372ft 140kts
22-Jun-16 18:53 34.447300 -117.626381 104 9365ft 139kts
22-Jun-16 18:54 34.435205 -117.582310 108 9365ft 138kts
22-Jun-16 18:55 34.421457 -117.538713 109 9407ft 138kts
22-Jun-16 18:56 34.407187 -117.497712 112 9472ft 138kts
22-Jun-16 18:58 34.388920 -117.456779 125 9528ft 139kts
22-Jun-16 18:59 34.363508 -117.422183 140 9604ft 137kts
22-Jun-16 19:00 34.332911 -117.395414 152 9649ft 137kts
22-Jun-16 19:01 34.299321 -117.374045 153 9669ft 136kts
22-Jun-16 19:02 34.265770 -117.351587 154 9553ft 137kts
22-Jun-16 19:03 34.233485 -117.328348 150 9517ft 135kts
22-Jun-16 19:04 34.202300 -117.302776 145 9458ft 135kts
22-Jun-16 19:05 34.178085 -117.267682 127 9398ft 137kts
22-Jun-16 19:06 34.153798 -117.232422 133 9387ft 136kts
22-Jun-16 19:07 34.128756 -117.198325 132 9371ft 136kts
22-Jun-16 19:08 34.103575 -117.163800 129 9359ft 136kts
22-Jun-16 19:09 34.081582 -117.126769 125 9390ft 135kts
22-Jun-16 19:10 34.063770 -117.086785 110 9407ft 135kts
22-Jun-16 19:11 34.046082 -117.046662 120 9426ft 135kts
22-Jun-16 19:12 34.027778 -117.007154 115 9470ft 135kts
22-Jun-16 19:13 34.011627 -116.966100 114 9507ft 135kts
22-Jun-16 19:14 33.994530 -116.925665 116 9545ft 135kts
22-Jun-16 19:15 33.976913 -116.885877 117 9510ft 135kts
22-Jun-16 19:15 33.963892 -116.852222 111 9169ft 132kts
22-Jun-16 19:16 33.950507 -116.810595 106 8573ft 133kts
22-Jun-16 19:17 33.939266 -116.768220 108 7858ft 127kts
22-Jun-16 19:18 33.929887 -116.726477 97 6498ft 129kts
22-Jun-16 19:19 33.925311 -116.684535 90 5294ft 121kts
22-Jun-16 19:20 33.925856 -116.647948 65 4649ft 103kts
22-Jun-16 19:21 33.936287 -116.615701 57 4413ft 99kts
22-Jun-16 19:22 33.936672 -116.581528 127 4210ft 129kts
22-Jun-16 19:23 33.912440 -116.549264 135 3061ft 125kts
22-Jun-16 19:24 33.883848 -116.525359 161 2003ft 124kts
22-Jun-16 19:25 33.853853 -116.508594 139 1446ft 119kts
22-Jun-16 19:26 33.826783 -116.489199 129 1494ft 107kts
22-Jun-16 19:27 33.809777 -116.468687 217 1294ft 72kts
22-Jun-16 19:28 33.809116 -116.486381 322 1028ft 58kts
22-Jun-16 19:29 33.823208 -116.499083 318 558ft 56kts
22-Jun-16 19:30 33.829035 -116.504234 323 480ft 13kts
22-Jun-16 19:31 33.829912 -116.504571 42 480ft 0kts
22-Jun-16 19:32 33.828461 -116.502691 132 480ft 0kts

Navigation Log

Ident Type
Flight plan parsing failed, navigation log unavailable